sensor_id;sensor_type;location;lat;lon;timestamp;P1;durP1;ratioP1;P2;durP2;ratioP2
21890;SDS011;11110;52.386;16.940;2022-11-23T00:01:34;68.83;;;25.10;;
21890;SDS011;11110;52.386;16.940;2022-11-23T00:04:04;60.30;;;25.13;;
21890;SDS011;11110;52.386;16.940;2022-11-23T00:06:33;77.97;;;26.87;;
21890;SDS011;11110;52.386;16.940;2022-11-23T00:09:02;64.60;;;25.07;;
21890;SDS011;11110;52.386;16.940;2022-11-23T00:11:32;71.27;;;27.27;;
21890;SDS011;11110;52.386;16.940;2022-11-23T00:14:02;68.67;;;26.43;;
21890;SDS011;11110;52.386;16.940;2022-11-23T00:16:30;68.97;;;24.90;;
21890;SDS011;11110;52.386;16.940;2022-11-23T00:18:59;69.40;;;25.40;;
21890;SDS011;11110;52.386;16.940;2022-11-23T00:21:29;73.07;;;25.70;;
21890;SDS011;11110;52.386;16.940;2022-11-23T00:23:58;75.50;;;26.23;;
21890;SDS011;11110;52.386;16.940;2022-11-23T00:26:27;84.43;;;27.10;;
21890;SDS011;11110;52.386;16.940;2022-11-23T00:28:57;72.67;;;27.03;;
21890;SDS011;11110;52.386;16.940;2022-11-23T00:31:26;66.40;;;23.73;;
21890;SDS011;11110;52.386;16.940;2022-11-23T00:33:55;82.50;;;27.30;;
21890;SDS011;11110;52.386;16.940;2022-11-23T00:36:24;71.60;;;26.03;;
21890;SDS011;11110;52.386;16.940;2022-11-23T00:38:54;69.17;;;25.83;;
21890;SDS011;11110;52.386;16.940;2022-11-23T00:41:24;66.40;;;25.40;;
21890;SDS011;11110;52.386;16.940;2022-11-23T00:43:54;67.23;;;25.23;;
21890;SDS011;11110;52.386;16.940;2022-11-23T00:46:23;69.30;;;25.23;;
21890;SDS011;11110;52.386;16.940;2022-11-23T00:48:54;78.07;;;28.43;;
21890;SDS011;11110;52.386;16.940;2022-11-23T00:51:25;78.40;;;26.23;;
21890;SDS011;11110;52.386;16.940;2022-11-23T00:53:55;65.00;;;23.60;;
21890;SDS011;11110;52.386;16.940;2022-11-23T00:56:25;67.83;;;24.03;;
21890;SDS011;11110;52.386;16.940;2022-11-23T00:58:55;80.23;;;26.00;;
21890;SDS011;11110;52.386;16.940;2022-11-23T01:01:26;69.97;;;25.13;;
21890;SDS011;11110;52.386;16.940;2022-11-23T01:03:57;63.07;;;25.53;;
21890;SDS011;11110;52.386;16.940;2022-11-23T01:06:29;71.67;;;26.60;;
21890;SDS011;11110;52.386;16.940;2022-11-23T01:09:00;59.90;;;24.13;;
21890;SDS011;11110;52.386;16.940;2022-11-23T01:11:31;78.43;;;27.67;;
21890;SDS011;11110;52.386;16.940;2022-11-23T01:14:00;66.87;;;24.17;;
21890;SDS011;11110;52.386;16.940;2022-11-23T01:16:30;69.27;;;25.90;;
21890;SDS011;11110;52.386;16.940;2022-11-23T01:19:00;74.43;;;27.40;;
21890;SDS011;11110;52.386;16.940;2022-11-23T01:21:30;65.67;;;24.50;;
21890;SDS011;11110;52.386;16.940;2022-11-23T01:23:59;69.30;;;24.57;;
21890;SDS011;11110;52.386;16.940;2022-11-23T01:26:31;80.87;;;27.33;;
21890;SDS011;11110;52.386;16.940;2022-11-23T01:28:59;76.17;;;25.60;;
21890;SDS011;11110;52.386;16.940;2022-11-23T01:31:28;70.37;;;25.90;;
21890;SDS011;11110;52.386;16.940;2022-11-23T01:33:58;77.70;;;27.33;;
21890;SDS011;11110;52.386;16.940;2022-11-23T01:36:28;63.93;;;24.03;;
21890;SDS011;11110;52.386;16.940;2022-11-23T01:38:58;73.77;;;25.83;;
21890;SDS011;11110;52.386;16.940;2022-11-23T01:41:28;80.27;;;27.57;;
21890;SDS011;11110;52.386;16.940;2022-11-23T01:43:58;66.33;;;25.30;;
21890;SDS011;11110;52.386;16.940;2022-11-23T01:46:26;59.53;;;22.97;;
21890;SDS011;11110;52.386;16.940;2022-11-23T01:48:56;70.80;;;26.13;;
21890;SDS011;11110;52.386;16.940;2022-11-23T01:51:29;70.13;;;25.67;;
21890;SDS011;11110;52.386;16.940;2022-11-23T01:54:02;72.73;;;25.87;;
21890;SDS011;11110;52.386;16.940;2022-11-23T01:56:34;79.23;;;27.03;;
21890;SDS011;11110;52.386;16.940;2022-11-23T01:59:06;73.20;;;26.57;;
21890;SDS011;11110;52.386;16.940;2022-11-23T02:01:38;68.60;;;24.43;;
21890;SDS011;11110;52.386;16.940;2022-11-23T02:04:09;68.47;;;25.53;;
21890;SDS011;11110;52.386;16.940;2022-11-23T02:06:43;72.10;;;25.67;;
21890;SDS011;11110;52.386;16.940;2022-11-23T02:09:14;83.63;;;28.67;;
21890;SDS011;11110;52.386;16.940;2022-11-23T02:11:43;74.13;;;26.67;;
21890;SDS011;11110;52.386;16.940;2022-11-23T02:14:13;68.13;;;23.03;;
21890;SDS011;11110;52.386;16.940;2022-11-23T02:16:48;68.43;;;24.00;;
21890;SDS011;11110;52.386;16.940;2022-11-23T02:19:20;73.90;;;25.63;;
21890;SDS011;11110;52.386;16.940;2022-11-23T02:21:58;66.07;;;24.80;;
21890;SDS011;11110;52.386;16.940;2022-11-23T02:24:27;69.73;;;26.30;;
21890;SDS011;11110;52.386;16.940;2022-11-23T02:27:02;74.40;;;26.97;;
21890;SDS011;11110;52.386;16.940;2022-11-23T02:29:32;68.50;;;25.27;;
21890;SDS011;11110;52.386;16.940;2022-11-23T02:32:01;71.53;;;25.63;;
21890;SDS011;11110;52.386;16.940;2022-11-23T02:34:29;71.60;;;26.17;;
21890;SDS011;11110;52.386;16.940;2022-11-23T02:36:58;74.93;;;26.87;;
21890;SDS011;11110;52.386;16.940;2022-11-23T02:39:29;60.10;;;25.53;;
21890;SDS011;11110;52.386;16.940;2022-11-23T02:42:03;83.43;;;28.43;;
21890;SDS011;11110;52.386;16.940;2022-11-23T02:44:35;76.07;;;29.60;;
21890;SDS011;11110;52.386;16.940;2022-11-23T02:47:08;65.80;;;25.20;;
21890;SDS011;11110;52.386;16.940;2022-11-23T02:49:38;75.37;;;28.97;;
21890;SDS011;11110;52.386;16.940;2022-11-23T02:52:07;70.93;;;25.70;;
21890;SDS011;11110;52.386;16.940;2022-11-23T02:54:36;82.43;;;27.27;;
21890;SDS011;11110;52.386;16.940;2022-11-23T02:57:06;73.53;;;25.63;;
21890;SDS011;11110;52.386;16.940;2022-11-23T02:59:35;73.47;;;26.70;;
21890;SDS011;11110;52.386;16.940;2022-11-23T03:02:05;77.20;;;27.80;;
21890;SDS011;11110;52.386;16.940;2022-11-23T03:04:34;75.37;;;26.73;;
21890;SDS011;11110;52.386;16.940;2022-11-23T03:07:02;76.33;;;28.23;;
21890;SDS011;11110;52.386;16.940;2022-11-23T03:09:31;67.23;;;25.63;;
21890;SDS011;11110;52.386;16.940;2022-11-23T03:12:01;69.93;;;25.80;;
21890;SDS011;11110;52.386;16.940;2022-11-23T03:14:30;81.63;;;28.27;;
21890;SDS011;11110;52.386;16.940;2022-11-23T03:16:59;75.23;;;27.83;;
21890;SDS011;11110;52.386;16.940;2022-11-23T03:19:33;76.17;;;25.50;;
21890;SDS011;11110;52.386;16.940;2022-11-23T03:22:01;75.40;;;25.33;;
21890;SDS011;11110;52.386;16.940;2022-11-23T03:24:30;73.23;;;26.97;;
21890;SDS011;11110;52.386;16.940;2022-11-23T03:27:01;71.77;;;26.00;;
21890;SDS011;11110;52.386;16.940;2022-11-23T03:29:31;71.87;;;24.67;;
21890;SDS011;11110;52.386;16.940;2022-11-23T03:32:05;67.97;;;27.07;;
21890;SDS011;11110;52.386;16.940;2022-11-23T03:34:33;69.23;;;24.97;;
21890;SDS011;11110;52.386;16.940;2022-11-23T03:37:03;66.87;;;24.63;;
21890;SDS011;11110;52.386;16.940;2022-11-23T03:39:31;62.70;;;25.63;;
21890;SDS011;11110;52.386;16.940;2022-11-23T03:42:20;73.17;;;26.37;;
21890;SDS011;11110;52.386;16.940;2022-11-23T03:44:49;59.43;;;24.77;;
21890;SDS011;11110;52.386;16.940;2022-11-23T03:47:17;66.70;;;24.47;;
21890;SDS011;11110;52.386;16.940;2022-11-23T03:49:46;74.33;;;27.07;;
21890;SDS011;11110;52.386;16.940;2022-11-23T03:52:15;64.33;;;24.27;;
21890;SDS011;11110;52.386;16.940;2022-11-23T03:54:43;68.50;;;25.03;;
21890;SDS011;11110;52.386;16.940;2022-11-23T03:57:13;75.47;;;26.60;;
21890;SDS011;11110;52.386;16.940;2022-11-23T03:59:41;65.47;;;24.50;;
21890;SDS011;11110;52.386;16.940;2022-11-23T04:02:12;65.00;;;23.87;;
21890;SDS011;11110;52.386;16.940;2022-11-23T04:04:49;68.60;;;24.43;;
21890;SDS011;11110;52.386;16.940;2022-11-23T04:07:52;73.37;;;25.73;;
21890;SDS011;11110;52.386;16.940;2022-11-23T04:10:23;69.60;;;25.20;;
21890;SDS011;11110;52.386;16.940;2022-11-23T04:13:13;75.80;;;26.57;;
21890;SDS011;11110;52.386;16.940;2022-11-23T04:15:42;70.00;;;24.90;;
21890;SDS011;11110;52.386;16.940;2022-11-23T04:18:11;70.53;;;25.87;;
21890;SDS011;11110;52.386;16.940;2022-11-23T04:20:40;78.33;;;26.67;;
21890;SDS011;11110;52.386;16.940;2022-11-23T04:23:08;63.33;;;23.63;;
21890;SDS011;11110;52.386;16.940;2022-11-23T04:25:40;72.77;;;26.53;;
21890;SDS011;11110;52.386;16.940;2022-11-23T04:28:08;70.97;;;25.93;;
21890;SDS011;11110;52.386;16.940;2022-11-23T04:30:37;74.43;;;25.17;;
21890;SDS011;11110;52.386;16.940;2022-11-23T04:33:05;72.13;;;26.30;;
21890;SDS011;11110;52.386;16.940;2022-11-23T04:35:36;79.63;;;27.80;;
21890;SDS011;11110;52.386;16.940;2022-11-23T04:38:05;73.80;;;25.20;;
21890;SDS011;11110;52.386;16.940;2022-11-23T04:40:33;74.13;;;25.67;;
21890;SDS011;11110;52.386;16.940;2022-11-23T04:43:02;73.80;;;27.00;;
21890;SDS011;11110;52.386;16.940;2022-11-23T04:45:36;80.73;;;28.43;;
21890;SDS011;11110;52.386;16.940;2022-11-23T04:48:08;79.90;;;27.33;;
21890;SDS011;11110;52.386;16.940;2022-11-23T04:50:38;84.27;;;26.60;;
21890;SDS011;11110;52.386;16.940;2022-11-23T04:53:13;77.27;;;26.83;;
21890;SDS011;11110;52.386;16.940;2022-11-23T04:55:45;77.73;;;26.87;;
21890;SDS011;11110;52.386;16.940;2022-11-23T04:58:15;78.67;;;27.10;;
21890;SDS011;11110;52.386;16.940;2022-11-23T05:00:46;83.37;;;28.27;;
21890;SDS011;11110;52.386;16.940;2022-11-23T05:03:15;74.37;;;27.53;;
21890;SDS011;11110;52.386;16.940;2022-11-23T05:05:44;77.13;;;27.80;;
21890;SDS011;11110;52.386;16.940;2022-11-23T05:08:12;81.27;;;29.73;;
21890;SDS011;11110;52.386;16.940;2022-11-23T05:10:49;86.17;;;28.50;;
21890;SDS011;11110;52.386;16.940;2022-11-23T05:13:18;80.83;;;27.63;;
21890;SDS011;11110;52.386;16.940;2022-11-23T05:15:47;74.80;;;25.97;;
21890;SDS011;11110;52.386;16.940;2022-11-23T05:18:21;83.03;;;28.50;;
21890;SDS011;11110;52.386;16.940;2022-11-23T05:20:51;87.73;;;28.60;;
21890;SDS011;11110;52.386;16.940;2022-11-23T05:23:20;76.67;;;27.43;;
21890;SDS011;11110;52.386;16.940;2022-11-23T05:25:51;78.87;;;26.27;;
21890;SDS011;11110;52.386;16.940;2022-11-23T05:28:20;77.90;;;27.10;;
21890;SDS011;11110;52.386;16.940;2022-11-23T05:31:07;86.03;;;27.70;;
21890;SDS011;11110;52.386;16.940;2022-11-23T05:33:36;76.23;;;26.57;;
21890;SDS011;11110;52.386;16.940;2022-11-23T05:36:09;71.17;;;26.03;;
21890;SDS011;11110;52.386;16.940;2022-11-23T05:38:40;74.13;;;25.60;;
21890;SDS011;11110;52.386;16.940;2022-11-23T05:41:18;80.17;;;27.37;;
21890;SDS011;11110;52.386;16.940;2022-11-23T05:43:50;71.40;;;24.53;;
21890;SDS011;11110;52.386;16.940;2022-11-23T05:46:22;77.10;;;27.30;;
21890;SDS011;11110;52.386;16.940;2022-11-23T05:48:51;74.90;;;27.73;;
21890;SDS011;11110;52.386;16.940;2022-11-23T05:51:21;76.83;;;26.20;;
21890;SDS011;11110;52.386;16.940;2022-11-23T05:53:49;85.03;;;26.87;;
21890;SDS011;11110;52.386;16.940;2022-11-23T05:56:26;71.87;;;26.30;;
21890;SDS011;11110;52.386;16.940;2022-11-23T05:59:09;78.27;;;26.10;;
21890;SDS011;11110;52.386;16.940;2022-11-23T06:01:40;74.60;;;26.00;;
21890;SDS011;11110;52.386;16.940;2022-11-23T06:04:12;85.73;;;26.73;;
21890;SDS011;11110;52.386;16.940;2022-11-23T06:06:45;76.60;;;26.23;;
21890;SDS011;11110;52.386;16.940;2022-11-23T06:09:13;71.87;;;25.20;;
21890;SDS011;11110;52.386;16.940;2022-11-23T06:11:45;78.90;;;26.33;;
21890;SDS011;11110;52.386;16.940;2022-11-23T06:14:17;69.63;;;23.97;;
21890;SDS011;11110;52.386;16.940;2022-11-23T06:16:46;63.73;;;22.77;;
21890;SDS011;11110;52.386;16.940;2022-11-23T06:19:27;79.73;;;25.27;;
21890;SDS011;11110;52.386;16.940;2022-11-23T06:21:58;71.03;;;23.33;;
21890;SDS011;11110;52.386;16.940;2022-11-23T06:24:30;74.53;;;25.57;;
21890;SDS011;11110;52.386;16.940;2022-11-23T06:27:30;66.80;;;24.37;;
21890;SDS011;11110;52.386;16.940;2022-11-23T06:30:02;79.00;;;25.23;;
21890;SDS011;11110;52.386;16.940;2022-11-23T06:32:32;74.33;;;25.87;;
21890;SDS011;11110;52.386;16.940;2022-11-23T06:35:00;76.17;;;26.00;;
21890;SDS011;11110;52.386;16.940;2022-11-23T06:37:34;75.67;;;24.73;;
21890;SDS011;11110;52.386;16.940;2022-11-23T06:40:02;75.37;;;25.20;;
21890;SDS011;11110;52.386;16.940;2022-11-23T06:42:32;63.47;;;23.33;;
21890;SDS011;11110;52.386;16.940;2022-11-23T06:45:12;80.77;;;25.63;;
21890;SDS011;11110;52.386;16.940;2022-11-23T06:47:41;78.80;;;27.70;;
21890;SDS011;11110;52.386;16.940;2022-11-23T06:50:09;72.03;;;25.50;;
21890;SDS011;11110;52.386;16.940;2022-11-23T06:52:41;74.67;;;24.70;;
21890;SDS011;11110;52.386;16.940;2022-11-23T06:55:09;75.47;;;24.70;;
21890;SDS011;11110;52.386;16.940;2022-11-23T06:57:37;72.97;;;26.00;;
21890;SDS011;11110;52.386;16.940;2022-11-23T07:00:08;74.13;;;25.83;;
21890;SDS011;11110;52.386;16.940;2022-11-23T07:02:38;67.23;;;24.10;;
21890;SDS011;11110;52.386;16.940;2022-11-23T07:05:07;69.23;;;23.70;;
21890;SDS011;11110;52.386;16.940;2022-11-23T07:07:37;72.97;;;23.60;;
21890;SDS011;11110;52.386;16.940;2022-11-23T07:10:13;70.87;;;24.83;;
21890;SDS011;11110;52.386;16.940;2022-11-23T07:12:44;71.70;;;23.90;;
21890;SDS011;11110;52.386;16.940;2022-11-23T07:15:16;70.97;;;24.03;;
21890;SDS011;11110;52.386;16.940;2022-11-23T07:17:45;66.83;;;23.13;;
21890;SDS011;11110;52.386;16.940;2022-11-23T07:20:13;79.97;;;26.83;;
21890;SDS011;11110;52.386;16.940;2022-11-23T07:22:43;79.07;;;26.23;;
21890;SDS011;11110;52.386;16.940;2022-11-23T07:25:12;66.83;;;24.13;;
21890;SDS011;11110;52.386;16.940;2022-11-23T07:27:44;72.77;;;24.23;;
21890;SDS011;11110;52.386;16.940;2022-11-23T07:30:12;78.73;;;24.33;;
21890;SDS011;11110;52.386;16.940;2022-11-23T07:32:42;74.27;;;25.97;;
21890;SDS011;11110;52.386;16.940;2022-11-23T07:35:10;77.00;;;24.83;;
21890;SDS011;11110;52.386;16.940;2022-11-23T07:37:42;67.47;;;24.10;;
21890;SDS011;11110;52.386;16.940;2022-11-23T07:40:10;77.10;;;25.17;;
21890;SDS011;11110;52.386;16.940;2022-11-23T07:42:43;75.40;;;27.40;;
21890;SDS011;11110;52.386;16.940;2022-11-23T07:45:12;72.60;;;26.13;;
21890;SDS011;11110;52.386;16.940;2022-11-23T07:47:44;75.00;;;25.77;;
21890;SDS011;11110;52.386;16.940;2022-11-23T07:50:12;73.97;;;25.63;;
21890;SDS011;11110;52.386;16.940;2022-11-23T07:52:41;64.07;;;23.93;;
21890;SDS011;11110;52.386;16.940;2022-11-23T07:55:09;76.43;;;25.67;;
21890;SDS011;11110;52.386;16.940;2022-11-23T07:57:39;79.93;;;25.87;;
21890;SDS011;11110;52.386;16.940;2022-11-23T08:00:07;67.97;;;25.83;;
21890;SDS011;11110;52.386;16.940;2022-11-23T08:02:38;78.10;;;25.40;;
21890;SDS011;11110;52.386;16.940;2022-11-23T08:05:26;69.97;;;23.27;;
21890;SDS011;11110;52.386;16.940;2022-11-23T08:07:58;64.37;;;23.40;;
21890;SDS011;11110;52.386;16.940;2022-11-23T08:10:28;71.07;;;24.80;;
21890;SDS011;11110;52.386;16.940;2022-11-23T08:13:00;80.17;;;25.03;;
21890;SDS011;11110;52.386;16.940;2022-11-23T08:15:30;75.57;;;25.50;;
21890;SDS011;11110;52.386;16.940;2022-11-23T08:17:59;73.50;;;26.90;;
21890;SDS011;11110;52.386;16.940;2022-11-23T08:20:29;66.57;;;25.20;;
21890;SDS011;11110;52.386;16.940;2022-11-23T08:23:00;72.03;;;25.00;;
21890;SDS011;11110;52.386;16.940;2022-11-23T08:25:28;71.07;;;25.77;;
21890;SDS011;11110;52.386;16.940;2022-11-23T08:27:57;67.87;;;26.53;;
21890;SDS011;11110;52.386;16.940;2022-11-23T08:30:29;66.37;;;25.40;;
21890;SDS011;11110;52.386;16.940;2022-11-23T08:33:01;62.93;;;24.57;;
21890;SDS011;11110;52.386;16.940;2022-11-23T08:35:31;72.23;;;27.07;;
21890;SDS011;11110;52.386;16.940;2022-11-23T08:38:00;74.17;;;26.47;;
21890;SDS011;11110;52.386;16.940;2022-11-23T08:40:28;73.77;;;25.37;;
21890;SDS011;11110;52.386;16.940;2022-11-23T08:42:57;70.57;;;24.50;;
21890;SDS011;11110;52.386;16.940;2022-11-23T08:45:27;67.93;;;24.50;;
21890;SDS011;11110;52.386;16.940;2022-11-23T08:47:57;63.30;;;23.30;;
21890;SDS011;11110;52.386;16.940;2022-11-23T08:50:27;65.97;;;24.73;;
21890;SDS011;11110;52.386;16.940;2022-11-23T08:52:56;67.67;;;24.10;;
21890;SDS011;11110;52.386;16.940;2022-11-23T08:55:26;59.07;;;22.10;;
21890;SDS011;11110;52.386;16.940;2022-11-23T08:57:55;75.37;;;24.97;;
21890;SDS011;11110;52.386;16.940;2022-11-23T09:00:24;75.60;;;24.10;;
21890;SDS011;11110;52.386;16.940;2022-11-23T09:02:54;66.97;;;25.30;;
21890;SDS011;11110;52.386;16.940;2022-11-23T09:05:25;78.30;;;26.70;;
21890;SDS011;11110;52.386;16.940;2022-11-23T09:07:53;72.40;;;25.93;;
21890;SDS011;11110;52.386;16.940;2022-11-23T09:10:22;66.40;;;25.00;;
21890;SDS011;11110;52.386;16.940;2022-11-23T09:12:50;72.30;;;24.37;;
21890;SDS011;11110;52.386;16.940;2022-11-23T09:15:19;67.87;;;25.20;;
21890;SDS011;11110;52.386;16.940;2022-11-23T09:17:48;67.70;;;24.97;;
21890;SDS011;11110;52.386;16.940;2022-11-23T09:20:17;74.67;;;25.47;;
21890;SDS011;11110;52.386;16.940;2022-11-23T09:22:49;69.43;;;23.63;;
21890;SDS011;11110;52.386;16.940;2022-11-23T09:25:18;74.33;;;25.67;;
21890;SDS011;11110;52.386;16.940;2022-11-23T09:27:47;75.60;;;26.13;;
21890;SDS011;11110;52.386;16.940;2022-11-23T09:30:15;65.30;;;23.37;;
21890;SDS011;11110;52.386;16.940;2022-11-23T09:32:44;70.50;;;23.20;;
21890;SDS011;11110;52.386;16.940;2022-11-23T09:35:13;67.93;;;24.87;;
21890;SDS011;11110;52.386;16.940;2022-11-23T09:37:42;72.80;;;25.33;;
21890;SDS011;11110;52.386;16.940;2022-11-23T09:40:11;67.17;;;24.00;;
21890;SDS011;11110;52.386;16.940;2022-11-23T09:42:54;70.53;;;25.77;;
21890;SDS011;11110;52.386;16.940;2022-11-23T09:45:35;72.87;;;24.63;;
21890;SDS011;11110;52.386;16.940;2022-11-23T09:48:28;67.80;;;23.40;;
21890;SDS011;11110;52.386;16.940;2022-11-23T09:51:06;74.43;;;24.93;;
21890;SDS011;11110;52.386;16.940;2022-11-23T09:53:43;69.43;;;24.80;;
21890;SDS011;11110;52.386;16.940;2022-11-23T09:56:16;72.07;;;25.23;;
21890;SDS011;11110;52.386;16.940;2022-11-23T09:58:49;63.80;;;24.47;;
21890;SDS011;11110;52.386;16.940;2022-11-23T10:01:20;66.57;;;23.43;;
21890;SDS011;11110;52.386;16.940;2022-11-23T10:03:48;74.37;;;25.43;;
21890;SDS011;11110;52.386;16.940;2022-11-23T10:06:18;66.47;;;23.10;;
21890;SDS011;11110;52.386;16.940;2022-11-23T10:08:54;75.37;;;25.27;;
21890;SDS011;11110;52.386;16.940;2022-11-23T10:11:37;65.60;;;24.30;;
21890;SDS011;11110;52.386;16.940;2022-11-23T10:14:20;81.13;;;26.30;;
21890;SDS011;11110;52.386;16.940;2022-11-23T10:17:04;71.90;;;24.50;;
21890;SDS011;11110;52.386;16.940;2022-11-23T10:19:43;68.70;;;24.90;;
21890;SDS011;11110;52.386;16.940;2022-11-23T10:22:20;66.10;;;24.80;;
21890;SDS011;11110;52.386;16.940;2022-11-23T10:24:54;74.27;;;26.13;;
21890;SDS011;11110;52.386;16.940;2022-11-23T10:27:23;80.00;;;28.27;;
21890;SDS011;11110;52.386;16.940;2022-11-23T10:29:52;83.23;;;27.10;;
21890;SDS011;11110;52.386;16.940;2022-11-23T10:32:25;85.30;;;29.40;;
21890;SDS011;11110;52.386;16.940;2022-11-23T10:34:58;84.27;;;28.70;;
21890;SDS011;11110;52.386;16.940;2022-11-23T10:37:31;77.47;;;26.83;;
21890;SDS011;11110;52.386;16.940;2022-11-23T10:40:01;72.87;;;25.37;;
21890;SDS011;11110;52.386;16.940;2022-11-23T10:42:30;69.00;;;23.97;;
21890;SDS011;11110;52.386;16.940;2022-11-23T10:45:03;84.03;;;25.53;;
21890;SDS011;11110;52.386;16.940;2022-11-23T10:47:33;77.23;;;24.50;;
21890;SDS011;11110;52.386;16.940;2022-11-23T10:50:20;75.33;;;25.20;;
21890;SDS011;11110;52.386;16.940;2022-11-23T10:52:51;70.47;;;24.47;;
21890;SDS011;11110;52.386;16.940;2022-11-23T10:55:24;67.40;;;24.60;;
21890;SDS011;11110;52.386;16.940;2022-11-23T10:57:54;71.83;;;23.50;;
21890;SDS011;11110;52.386;16.940;2022-11-23T11:00:24;76.13;;;25.37;;
21890;SDS011;11110;52.386;16.940;2022-11-23T11:02:57;75.43;;;24.00;;
21890;SDS011;11110;52.386;16.940;2022-11-23T11:05:29;81.60;;;25.97;;
21890;SDS011;11110;52.386;16.940;2022-11-23T11:08:19;70.80;;;24.20;;
21890;SDS011;11110;52.386;16.940;2022-11-23T11:10:55;72.53;;;25.13;;
21890;SDS011;11110;52.386;16.940;2022-11-23T11:13:27;64.70;;;24.27;;
21890;SDS011;11110;52.386;16.940;2022-11-23T11:15:58;74.20;;;25.10;;
21890;SDS011;11110;52.386;16.940;2022-11-23T11:18:28;74.70;;;26.40;;
21890;SDS011;11110;52.386;16.940;2022-11-23T11:20:59;64.17;;;24.47;;
21890;SDS011;11110;52.386;16.940;2022-11-23T11:23:30;72.73;;;25.53;;
21890;SDS011;11110;52.386;16.940;2022-11-23T11:26:08;74.10;;;25.47;;
21890;SDS011;11110;52.386;16.940;2022-11-23T11:28:45;70.57;;;25.00;;
21890;SDS011;11110;52.386;16.940;2022-11-23T11:34:18;81.00;;;25.30;;
21890;SDS011;11110;52.386;16.940;2022-11-23T11:36:52;73.90;;;25.87;;
21890;SDS011;11110;52.386;16.940;2022-11-23T11:39:26;76.90;;;26.57;;
21890;SDS011;11110;52.386;16.940;2022-11-23T11:42:02;75.70;;;26.17;;
21890;SDS011;11110;52.386;16.940;2022-11-23T11:44:35;78.87;;;26.00;;
21890;SDS011;11110;52.386;16.940;2022-11-23T11:47:12;80.73;;;26.33;;
21890;SDS011;11110;52.386;16.940;2022-11-23T11:49:49;76.57;;;26.40;;
21890;SDS011;11110;52.386;16.940;2022-11-23T11:52:21;79.73;;;25.13;;
21890;SDS011;11110;52.386;16.940;2022-11-23T11:54:54;71.13;;;25.73;;
21890;SDS011;11110;52.386;16.940;2022-11-23T11:57:32;71.87;;;26.40;;
21890;SDS011;11110;52.386;16.940;2022-11-23T12:00:05;69.87;;;25.50;;
21890;SDS011;11110;52.386;16.940;2022-11-23T12:02:41;71.30;;;26.73;;
21890;SDS011;11110;52.386;16.940;2022-11-23T12:05:19;74.93;;;27.10;;
21890;SDS011;11110;52.386;16.940;2022-11-23T12:07:54;82.40;;;28.20;;
21890;SDS011;11110;52.386;16.940;2022-11-23T12:10:29;81.30;;;27.27;;
21890;SDS011;11110;52.386;16.940;2022-11-23T12:13:04;71.67;;;27.87;;
21890;SDS011;11110;52.386;16.940;2022-11-23T12:15:39;72.13;;;26.23;;
21890;SDS011;11110;52.386;16.940;2022-11-23T12:18:26;76.33;;;27.43;;
21890;SDS011;11110;52.386;16.940;2022-11-23T12:21:15;84.63;;;28.80;;
21890;SDS011;11110;52.386;16.940;2022-11-23T12:24:02;75.90;;;26.97;;
21890;SDS011;11110;52.386;16.940;2022-11-23T12:26:40;81.90;;;29.17;;
21890;SDS011;11110;52.386;16.940;2022-11-23T12:29:22;87.20;;;31.63;;
21890;SDS011;11110;52.386;16.940;2022-11-23T12:32:04;77.50;;;27.30;;
21890;SDS011;11110;52.386;16.940;2022-11-23T12:34:53;72.10;;;25.63;;
21890;SDS011;11110;52.386;16.940;2022-11-23T12:37:35;68.80;;;25.40;;
21890;SDS011;11110;52.386;16.940;2022-11-23T12:43:10;73.83;;;28.87;;
21890;SDS011;11110;52.386;16.940;2022-11-23T12:45:45;71.33;;;27.97;;
21890;SDS011;11110;52.386;16.940;2022-11-23T12:48:47;78.57;;;29.23;;
21890;SDS011;11110;52.386;16.940;2022-11-23T12:51:27;69.80;;;27.43;;
21890;SDS011;11110;52.386;16.940;2022-11-23T12:54:06;71.43;;;27.60;;
21890;SDS011;11110;52.386;16.940;2022-11-23T12:59:38;89.57;;;30.67;;
21890;SDS011;11110;52.386;16.940;2022-11-23T13:02:18;81.80;;;31.27;;
21890;SDS011;11110;52.386;16.940;2022-11-23T13:08:32;83.90;;;28.20;;
21890;SDS011;11110;52.386;16.940;2022-11-23T13:11:18;81.73;;;29.03;;
21890;SDS011;11110;52.386;16.940;2022-11-23T13:13:57;67.17;;;26.30;;
21890;SDS011;11110;52.386;16.940;2022-11-23T13:16:42;68.43;;;26.13;;
21890;SDS011;11110;52.386;16.940;2022-11-23T13:19:34;78.13;;;28.07;;
21890;SDS011;11110;52.386;16.940;2022-11-23T13:22:14;76.07;;;28.80;;
21890;SDS011;11110;52.386;16.940;2022-11-23T13:24:59;83.00;;;28.63;;
21890;SDS011;11110;52.386;16.940;2022-11-23T13:27:39;76.87;;;28.53;;
21890;SDS011;11110;52.386;16.940;2022-11-23T13:30:23;82.17;;;30.83;;
21890;SDS011;11110;52.386;16.940;2022-11-23T13:33:24;78.80;;;29.47;;
21890;SDS011;11110;52.386;16.940;2022-11-23T13:36:03;71.60;;;28.73;;
21890;SDS011;11110;52.386;16.940;2022-11-23T13:38:41;71.40;;;27.43;;
21890;SDS011;11110;52.386;16.940;2022-11-23T13:44:19;80.03;;;28.83;;
21890;SDS011;11110;52.386;16.940;2022-11-23T13:47:00;79.50;;;30.10;;
21890;SDS011;11110;52.386;16.940;2022-11-23T13:49:34;79.70;;;29.70;;
21890;SDS011;11110;52.386;16.940;2022-11-23T13:52:19;74.83;;;29.03;;
21890;SDS011;11110;52.386;16.940;2022-11-23T13:54:54;93.33;;;31.37;;
21890;SDS011;11110;52.386;16.940;2022-11-23T13:57:35;88.53;;;32.70;;
21890;SDS011;11110;52.386;16.940;2022-11-23T14:06:21;96.90;;;34.07;;
21890;SDS011;11110;52.386;16.940;2022-11-23T14:09:02;93.00;;;33.97;;
21890;SDS011;11110;52.386;16.940;2022-11-23T14:11:38;88.90;;;32.07;;
21890;SDS011;11110;52.386;16.940;2022-11-23T14:14:17;95.57;;;34.30;;
21890;SDS011;11110;52.386;16.940;2022-11-23T14:16:56;88.17;;;30.63;;
21890;SDS011;11110;52.386;16.940;2022-11-23T14:19:40;80.23;;;30.40;;
21890;SDS011;11110;52.386;16.940;2022-11-23T14:22:19;89.47;;;31.70;;
21890;SDS011;11110;52.386;16.940;2022-11-23T14:25:00;89.30;;;33.03;;
21890;SDS011;11110;52.386;16.940;2022-11-23T14:27:45;86.70;;;32.63;;
21890;SDS011;11110;52.386;16.940;2022-11-23T14:33:15;80.73;;;31.67;;
21890;SDS011;11110;52.386;16.940;2022-11-23T14:35:56;84.40;;;32.03;;
21890;SDS011;11110;52.386;16.940;2022-11-23T14:38:46;93.50;;;33.43;;
21890;SDS011;11110;52.386;16.940;2022-11-23T14:41:33;87.93;;;32.20;;
21890;SDS011;11110;52.386;16.940;2022-11-23T14:44:03;86.10;;;33.23;;
21890;SDS011;11110;52.386;16.940;2022-11-23T14:46:32;92.50;;;32.03;;
21890;SDS011;11110;52.386;16.940;2022-11-23T14:49:04;91.17;;;32.97;;
21890;SDS011;11110;52.386;16.940;2022-11-23T14:51:34;86.73;;;31.73;;
21890;SDS011;11110;52.386;16.940;2022-11-23T14:54:08;92.27;;;35.17;;
21890;SDS011;11110;52.386;16.940;2022-11-23T14:56:40;101.20;;;35.03;;
21890;SDS011;11110;52.386;16.940;2022-11-23T14:59:14;91.00;;;33.97;;
21890;SDS011;11110;52.386;16.940;2022-11-23T15:01:48;94.13;;;33.80;;
21890;SDS011;11110;52.386;16.940;2022-11-23T15:04:23;87.17;;;33.10;;
21890;SDS011;11110;52.386;16.940;2022-11-23T15:06:55;99.90;;;34.67;;